createdAt,value
2019-06-07T00:00:50.334Z,81.64
2019-06-07T00:01:50.314Z,81.44
2019-06-07T00:02:50.303Z,82.24
2019-06-07T00:03:50.294Z,82.35
2019-06-07T00:04:50.305Z,81.64
2019-06-07T00:05:50.281Z,81.13
2019-06-07T00:06:50.274Z,81.54
2019-06-07T00:07:50.248Z,81.57
2019-06-07T00:08:50.241Z,81.64
2019-06-07T00:09:50.263Z,80.53
2019-06-07T00:10:50.226Z,80.63
2019-06-07T00:11:50.219Z,81.07
2019-06-07T00:12:50.198Z,80.93
2019-06-07T00:13:50.187Z,80.73
2019-06-07T00:14:50.185Z,80.63
2019-06-07T00:15:50.191Z,79.62
2019-06-07T00:16:50.153Z,79.82
2019-06-07T00:17:50.400Z,79.32
2019-06-07T00:18:50.128Z,79.01
2019-06-07T00:19:50.492Z,79.32
2019-06-07T00:20:50.110Z,79.11
2019-06-07T00:22:15.781Z,79.41
2019-06-07T00:22:51.103Z,79.41
2019-06-07T00:23:50.103Z,79.41
2019-06-07T00:24:50.101Z,79.92
2019-06-07T00:25:50.057Z,79.72
2019-06-07T00:26:58.597Z,80.12
2019-06-07T00:27:51.052Z,79.62
2019-06-07T00:28:50.032Z,79.32
2019-06-07T00:29:50.035Z,79.32
2019-06-07T00:30:51.904Z,78.91
2019-06-07T00:31:49.988Z,79.32
2019-06-07T00:32:49.980Z,79.11
2019-06-07T00:33:49.968Z,79.11
2019-06-07T00:34:49.977Z,79.82
2019-06-07T00:35:49.944Z,79.52
2019-06-07T00:36:49.938Z,79.11
2019-06-07T00:37:49.927Z,79.32
2019-06-07T00:38:49.927Z,79.21
2019-06-07T00:40:12.871Z,78.91
2019-06-07T00:40:50.887Z,79.21
2019-06-07T00:41:49.881Z,79.01
2019-06-07T00:42:49.868Z,79.01
2019-06-07T00:43:49.860Z,78.91
2019-06-07T00:44:49.874Z,78.81
2019-06-07T00:45:49.846Z,78.61
2019-06-07T00:46:49.846Z,78.71
2019-06-07T00:47:49.815Z,78.71
2019-06-07T00:48:49.810Z,78.10
2019-06-07T00:49:49.842Z,78.50
2019-06-07T00:50:49.786Z,78.50
2019-06-07T00:51:51.770Z,78.37
2019-06-07T00:53:50.748Z,78.00
2019-06-07T00:54:49.804Z,78.47
2019-06-07T00:55:49.744Z,78.30
2019-06-07T00:56:49.720Z,76.79
2019-06-07T00:57:49.724Z,75.68
2019-06-07T00:59:09.658Z,75.74
2019-06-07T00:59:50.711Z,76.04
2019-06-07T01:00:49.686Z,76.18
2019-06-07T01:01:49.666Z,75.57
2019-06-07T01:02:49.657Z,75.17
2019-06-07T01:03:49.652Z,75.17
2019-06-07T01:04:49.666Z,75.37
2019-06-07T01:05:49.648Z,75.37
2019-06-07T01:06:49.614Z,74.73
2019-06-07T01:07:49.616Z,74.53
2019-06-07T01:08:49.600Z,74.63
2019-06-07T01:09:49.599Z,74.43
2019-06-07T01:10:53.762Z,74.77
2019-06-07T01:11:49.556Z,74.73
2019-06-07T01:12:49.551Z,74.93
2019-06-07T01:13:49.547Z,75.27
2019-06-07T01:14:49.538Z,75.17
2019-06-07T01:15:49.602Z,75.27
2019-06-07T01:16:57.464Z,75.37
2019-06-07T01:18:32.990Z,75.78
2019-06-07T01:18:51.290Z,75.78
2019-06-07T01:19:49.506Z,76.18
2019-06-07T01:20:49.474Z,76.18
2019-06-07T01:21:49.474Z,76.45
2019-06-07T01:22:49.438Z,76.79
2019-06-07T01:24:10.970Z,76.99
2019-06-07T01:24:50.422Z,77.70
2019-06-07T01:25:49.601Z,77.60
2019-06-07T01:26:49.410Z,78.10
2019-06-07T01:27:49.382Z,77.09
2019-06-07T01:28:49.375Z,77.29
2019-06-07T01:29:49.389Z,77.70
2019-06-07T01:30:49.360Z,77.90
2019-06-07T01:31:49.374Z,77.60
2019-06-07T01:32:49.348Z,77.94
2019-06-07T01:33:51.253Z,77.94
2019-06-07T01:34:49.304Z,78.64
2019-06-07T01:35:49.294Z,78.24
2019-06-07T01:36:49.314Z,78.75
2019-06-07T01:37:49.328Z,78.64
2019-06-07T01:38:49.280Z,78.55
2019-06-07T01:39:49.252Z,78.55
2019-06-07T01:40:49.240Z,78.85
2019-06-07T01:41:49.278Z,78.95
2019-06-07T01:42:49.218Z,78.34
2019-06-07T01:43:49.224Z,77.73
2019-06-07T01:44:49.198Z,77.23
2019-06-07T01:45:49.202Z,77.53
2019-06-07T01:46:49.214Z,77.47
2019-06-07T01:47:49.194Z,77.43
2019-06-07T01:48:49.937Z,77.43
2019-06-07T01:49:49.160Z,77.37
2019-06-07T01:50:49.134Z,76.97
2019-06-07T01:51:49.122Z,77.67
2019-06-07T01:52:49.128Z,77.57
2019-06-07T01:53:49.114Z,77.73
2019-06-07T01:54:57.508Z,77.37
2019-06-07T01:55:50.078Z,77.97
2019-06-07T01:56:49.070Z,76.97
2019-06-07T01:57:49.098Z,78.08
2019-06-07T01:58:49.048Z,77.33
2019-06-07T01:59:58.062Z,77.77
2019-06-07T02:00:49.034Z,77.77
2019-06-07T02:01:58.092Z,77.47
2019-06-07T02:02:49.047Z,77.57
2019-06-07T02:03:48.991Z,76.97
2019-06-07T02:04:48.986Z,77.77
2019-06-07T02:05:49.007Z,77.17
2019-06-07T02:06:49.024Z,77.87
2019-06-07T02:07:48.966Z,77.37
2019-06-07T02:08:48.940Z,77.67
2019-06-07T02:09:48.930Z,77.57
2019-06-07T02:10:48.959Z,77.47
2019-06-07T02:11:48.908Z,77.77
2019-06-07T02:12:48.908Z,77.77
2019-06-07T02:13:48.923Z,77.67
2019-06-07T02:14:48.879Z,78.42
2019-06-07T02:15:48.883Z,78.72
2019-06-07T02:16:48.866Z,78.62
2019-06-07T02:17:48.844Z,78.62
2019-06-07T02:19:01.311Z,78.52
2019-06-07T02:19:49.828Z,77.71
2019-06-07T02:20:48.855Z,77.10
2019-06-07T02:21:48.794Z,78.01
2019-06-07T02:22:49.597Z,78.01
2019-06-07T02:23:48.780Z,78.21
2019-06-07T02:25:34.116Z,78.01
2019-06-07T02:25:50.733Z,77.91
2019-06-07T02:26:48.744Z,78.42
2019-06-07T02:27:48.744Z,77.81
2019-06-07T02:28:48.724Z,78.01
2019-06-07T02:29:48.726Z,78.01
2019-06-07T02:30:59.401Z,77.91
2019-06-07T02:31:49.688Z,78.42
2019-06-07T02:32:48.684Z,78.62
2019-06-07T02:33:48.678Z,78.31
2019-06-07T02:34:48.712Z,78.52
2019-06-07T02:35:48.662Z,78.21
2019-06-07T02:36:48.651Z,78.21
2019-06-07T02:37:48.628Z,78.72
2019-06-07T02:38:48.620Z,79.22
2019-06-07T02:39:48.628Z,78.82
2019-06-07T02:40:48.611Z,79.33
2019-06-07T02:41:48.592Z,79.63
2019-06-07T02:42:48.611Z,79.33
2019-06-07T02:43:48.618Z,79.33
2019-06-07T02:44:48.551Z,79.43
2019-06-07T02:45:48.568Z,79.93
2019-06-07T02:46:50.028Z,79.73
2019-06-07T02:47:48.536Z,79.67
2019-06-07T02:48:48.509Z,79.67
2019-06-07T02:49:48.498Z,79.83
2019-06-07T02:50:48.506Z,79.26
2019-06-07T02:51:48.474Z,79.67
2019-06-07T02:52:49.067Z,79.46
2019-06-07T02:53:48.504Z,79.87
2019-06-07T02:54:48.518Z,79.87
2019-06-07T02:56:34.359Z,80.18
2019-06-07T02:56:57.765Z,80.98
2019-06-07T02:57:49.429Z,80.98
2019-06-07T02:58:48.417Z,80.68
2019-06-07T03:00:06.309Z,80.78
2019-06-07T03:01:09.168Z,80.68
2019-06-07T03:01:49.377Z,80.78
2019-06-07T03:02:48.381Z,80.88
2019-06-07T03:03:48.354Z,80.78
2019-06-07T03:04:48.347Z,80.58
2019-06-07T03:05:48.361Z,79.97
2019-06-07T03:06:48.321Z,79.97
2019-06-07T03:07:48.320Z,80.18
2019-06-07T03:08:48.292Z,81.09
2019-06-07T03:09:48.288Z,80.98
2019-06-07T03:10:48.298Z,80.68
2019-06-07T03:11:48.260Z,80.88
2019-06-07T03:12:48.292Z,80.38
2019-06-07T03:13:48.238Z,80.38
2019-06-07T03:14:48.239Z,80.18
2019-06-07T03:15:50.337Z,79.97
2019-06-07T03:16:48.225Z,80.27
2019-06-07T03:17:48.218Z,80.98
2019-06-07T03:18:48.187Z,80.98
2019-06-07T03:19:48.191Z,80.07
2019-06-07T03:21:04.586Z,80.94
2019-06-07T03:21:49.182Z,79.83
2019-06-07T03:22:48.145Z,79.93
2019-06-07T03:23:48.130Z,79.83
2019-06-07T03:24:48.125Z,79.87
2019-06-07T03:25:48.137Z,79.97
2019-06-07T03:27:31.732Z,79.73
2019-06-07T03:27:50.173Z,79.63
2019-06-07T03:28:48.087Z,79.73
2019-06-07T03:29:48.073Z,79.53
2019-06-07T03:31:01.501Z,79.73
2019-06-07T03:31:49.063Z,79.33
2019-06-07T03:32:48.696Z,79.26
2019-06-07T03:33:48.036Z,79.83
2019-06-07T03:34:48.021Z,79.63
2019-06-07T03:35:48.022Z,79.63
2019-06-07T03:36:47.988Z,79.87
2019-06-07T03:37:47.981Z,79.87
2019-06-07T03:38:47.980Z,79.87
2019-06-07T03:39:47.975Z,79.97
2019-06-07T03:40:47.988Z,79.87
2019-06-07T03:42:05.126Z,79.67
2019-06-07T03:42:48.927Z,79.87
2019-06-07T03:43:47.926Z,79.97
2019-06-07T03:44:47.912Z,79.77
2019-06-07T03:45:47.930Z,80.38
2019-06-07T03:46:47.913Z,80.18
2019-06-07T03:47:47.879Z,80.98
2019-06-07T03:48:47.873Z,80.98
2019-06-07T03:49:47.859Z,80.68
2019-06-07T03:50:47.853Z,80.38
2019-06-07T03:51:47.855Z,80.27
2019-06-07T03:52:47.833Z,79.87
2019-06-07T03:53:47.813Z,79.97
2019-06-07T03:54:47.802Z,79.87
2019-06-07T03:55:47.818Z,79.87
2019-06-07T03:56:47.866Z,79.46
2019-06-07T03:58:30.186Z,79.77
2019-06-07T03:58:50.436Z,79.77
2019-06-07T03:59:47.753Z,79.67
2019-06-07T04:00:47.738Z,79.50
2019-06-07T04:01:47.745Z,79.46
2019-06-07T04:02:47.741Z,79.57
2019-06-07T04:03:51.830Z,79.60
2019-06-07T04:04:47.693Z,79.30
2019-06-07T04:05:47.693Z,79.30
2019-06-07T04:06:47.668Z,79.26
2019-06-07T04:07:47.687Z,79.26
2019-06-07T04:08:47.665Z,80.01
2019-06-07T04:09:47.671Z,80.31
2019-06-07T04:10:59.025Z,80.72
2019-06-07T04:11:48.619Z,80.88
2019-06-07T04:12:47.635Z,80.18
2019-06-07T04:13:47.604Z,79.87
2019-06-07T04:14:47.588Z,78.96
2019-06-07T04:15:47.780Z,78.96
2019-06-07T04:16:47.566Z,79.46
2019-06-07T04:18:01.342Z,78.86
2019-06-07T04:18:48.569Z,79.67
2019-06-07T04:19:47.577Z,79.60
2019-06-07T04:20:47.598Z,79.46
2019-06-07T04:21:47.513Z,78.75
2019-06-07T04:22:47.507Z,78.39
2019-06-07T04:23:47.511Z,78.55
2019-06-07T04:24:47.481Z,78.96
2019-06-07T04:25:47.503Z,78.35
2019-06-07T04:26:47.466Z,77.68
2019-06-07T04:27:47.446Z,77.75
2019-06-07T04:29:31.657Z,78.35
2019-06-07T04:30:06.519Z,78.66
2019-06-07T04:30:48.415Z,78.28
2019-06-07T04:31:47.425Z,77.88
2019-06-07T04:32:47.392Z,77.64
2019-06-07T04:33:47.453Z,77.95
2019-06-07T04:34:47.375Z,78.05
2019-06-07T04:35:47.397Z,77.75
2019-06-07T04:36:58.779Z,78.25
2019-06-07T04:37:48.341Z,77.64
2019-06-07T04:38:47.329Z,77.88
2019-06-07T04:39:47.321Z,77.95
2019-06-07T04:40:47.333Z,77.54
2019-06-07T04:41:47.303Z,77.48
2019-06-07T04:42:47.289Z,77.84
2019-06-07T04:43:47.279Z,77.17
2019-06-07T04:44:47.293Z,77.68
2019-06-07T04:45:51.156Z,78.25
2019-06-07T04:46:47.255Z,77.68
2019-06-07T04:47:47.250Z,77.17
2019-06-07T04:48:47.235Z,77.75
2019-06-07T04:49:47.243Z,77.03
2019-06-07T04:50:47.198Z,77.54
2019-06-07T04:51:47.198Z,76.43
2019-06-07T04:52:47.216Z,76.50
2019-06-07T04:53:47.171Z,75.89
2019-06-07T04:54:47.185Z,74.94
2019-06-07T04:55:47.156Z,74.84
2019-06-07T04:56:47.135Z,74.43
2019-06-07T04:57:47.160Z,74.63
2019-06-07T04:58:47.137Z,74.94
2019-06-07T05:00:12.057Z,75.07
2019-06-07T05:00:54.199Z,75.45
2019-06-07T05:01:48.085Z,75.38
2019-06-07T05:02:47.091Z,75.58
2019-06-07T05:03:47.069Z,75.92
2019-06-07T05:04:47.051Z,75.99
2019-06-07T05:05:47.071Z,76.50
2019-06-07T05:06:47.055Z,76.53
2019-06-07T05:07:47.017Z,76.70
2019-06-07T05:08:47.007Z,76.50
2019-06-07T05:09:46.994Z,75.58
2019-06-07T05:11:55.515Z,75.79
2019-06-07T05:12:55.499Z,75.68
2019-06-07T05:13:55.613Z,75.89
2019-06-07T05:16:04.275Z,75.99
2019-06-07T05:17:03.966Z,76.15
2019-06-07T05:18:03.957Z,76.35
2019-06-07T05:19:03.944Z,76.05
2019-06-07T05:20:03.949Z,75.95
2019-06-07T05:21:03.940Z,75.75
2019-06-07T05:22:05.241Z,75.85
2019-06-07T05:23:03.909Z,75.95
2019-06-07T05:24:09.590Z,75.81
2019-06-07T05:25:04.879Z,75.95
2019-06-07T05:26:03.890Z,76.32
2019-06-07T05:27:03.857Z,75.92
2019-06-07T05:28:03.841Z,75.48
2019-06-07T05:29:03.831Z,74.90
2019-06-07T05:30:50.505Z,74.90
2019-06-07T05:31:07.671Z,74.77
2019-06-07T05:32:03.800Z,73.96
2019-06-07T05:33:03.815Z,73.66
2019-06-07T05:34:03.778Z,72.95
2019-06-07T05:35:03.866Z,72.24
2019-06-07T05:36:03.788Z,72.14
2019-06-07T05:37:11.568Z,72.44
2019-06-07T05:38:04.737Z,72.34
2019-06-07T05:39:03.737Z,72.44
2019-06-07T05:40:03.713Z,72.85
2019-06-07T05:41:03.713Z,72.64
2019-06-07T05:42:03.715Z,73.05
2019-06-07T05:43:03.689Z,72.85
2019-06-07T05:44:12.511Z,72.95
2019-06-07T05:45:04.661Z,73.15
2019-06-07T05:46:03.652Z,73.66
2019-06-07T05:47:03.661Z,73.55
2019-06-07T05:48:03.659Z,74.06
2019-06-07T05:49:03.612Z,73.75
2019-06-07T05:50:03.663Z,71.84
2019-06-07T05:51:03.599Z,70.73
2019-06-07T05:52:03.597Z,71.94
2019-06-07T05:53:03.574Z,71.73
2019-06-07T05:54:03.575Z,72.75
2019-06-07T05:55:03.548Z,72.24
2019-06-07T05:56:03.750Z,72.41
2019-06-07T05:57:03.549Z,72.17
2019-06-07T05:58:03.550Z,71.91
2019-06-07T05:59:03.508Z,71.77
2019-06-07T06:00:03.512Z,71.47
2019-06-07T06:01:41.666Z,71.73
2019-06-07T06:02:21.694Z,70.22
2019-06-07T06:03:06.073Z,70.22
2019-06-07T06:04:03.450Z,71.00
2019-06-07T06:05:03.508Z,71.10
2019-06-07T06:06:03.537Z,69.59
2019-06-07T06:07:03.526Z,70.09
2019-06-07T06:08:03.408Z,70.19
2019-06-07T06:09:13.340Z,69.68
2019-06-07T06:10:04.405Z,69.48
2019-06-07T06:11:03.385Z,70.59
2019-06-07T06:12:03.391Z,69.68
2019-06-07T06:13:03.369Z,70.42
2019-06-07T06:14:12.507Z,70.42
2019-06-07T06:15:12.533Z,71.13
2019-06-07T06:16:03.333Z,70.83
2019-06-07T06:17:03.327Z,71.03
2019-06-07T06:18:03.323Z,70.93
2019-06-07T06:19:03.306Z,70.42
2019-06-07T06:20:03.339Z,70.42
2019-06-07T06:21:16.306Z,70.53
2019-06-07T06:22:04.283Z,70.93
2019-06-07T06:23:03.338Z,70.22
2019-06-07T06:24:03.242Z,70.62
2019-06-07T06:25:33.812Z,71.13
2019-06-07T06:26:04.226Z,70.59
2019-06-07T06:27:18.891Z,70.49
2019-06-07T06:28:11.618Z,70.79
2019-06-07T06:29:04.184Z,70.59
2019-06-07T06:30:03.179Z,69.89
2019-06-07T06:31:03.177Z,69.85
2019-06-07T06:32:40.717Z,68.44
2019-06-07T06:33:04.155Z,66.86
2019-06-07T06:34:03.138Z,65.92
2019-06-07T06:35:03.117Z,65.72
2019-06-07T06:36:03.115Z,66.42
2019-06-07T06:37:03.130Z,66.83
2019-06-07T06:38:03.085Z,66.63
2019-06-07T06:39:03.075Z,67.13
2019-06-07T06:40:03.073Z,67.13
2019-06-07T06:41:15.149Z,67.13
2019-06-07T06:42:04.081Z,66.53
2019-06-07T06:43:03.063Z,66.93
2019-06-07T06:44:03.085Z,65.82
2019-06-07T06:45:03.096Z,65.22
2019-06-07T06:46:03.034Z,65.82
2019-06-07T06:47:03.024Z,65.62
2019-06-07T06:48:03.002Z,65.82
2019-06-07T06:49:02.974Z,65.92
2019-06-07T06:50:02.978Z,65.82
2019-06-07T06:51:02.953Z,65.32
2019-06-07T06:52:02.955Z,64.72
2019-06-07T06:53:02.958Z,64.51
2019-06-07T06:54:02.926Z,65.01
2019-06-07T06:55:02.904Z,65.22
2019-06-07T06:56:02.903Z,64.72
2019-06-07T06:57:19.096Z,64.98
2019-06-07T06:58:03.887Z,65.12
2019-06-07T07:00:03.855Z,64.15
2019-06-07T07:01:06.819Z,63.78
2019-06-07T07:02:02.848Z,63.95
2019-06-07T07:03:47.776Z,63.78
2019-06-07T07:04:12.336Z,63.98
2019-06-07T07:05:03.810Z,64.58
2019-06-07T07:06:24.591Z,64.69
2019-06-07T07:07:03.777Z,64.38
2019-06-07T07:08:02.823Z,63.47
2019-06-07T07:09:02.769Z,63.85
2019-06-07T07:10:03.136Z,63.78
2019-06-07T07:11:02.742Z,64.07
2019-06-07T07:12:12.185Z,64.07
2019-06-07T07:13:03.717Z,64.78
2019-06-07T07:14:02.699Z,64.78
2019-06-07T07:15:02.706Z,64.45
2019-06-07T07:16:02.694Z,64.75
2019-06-07T07:17:02.690Z,64.95
2019-06-07T07:18:08.472Z,64.35
2019-06-07T07:19:03.678Z,64.35
2019-06-07T07:20:02.692Z,64.62
2019-06-07T07:21:02.654Z,64.32
2019-06-07T07:22:02.646Z,63.71
2019-06-07T07:23:02.629Z,63.92
2019-06-07T07:24:20.414Z,62.27
2019-06-07T07:25:03.603Z,63.89
2019-06-07T07:26:02.580Z,63.39
2019-06-07T07:27:02.588Z,63.18
2019-06-07T07:28:02.555Z,62.78
2019-06-07T07:29:02.559Z,62.78
2019-06-07T07:30:35.352Z,62.68
2019-06-07T07:31:03.523Z,62.88
2019-06-07T07:32:02.532Z,62.78
2019-06-07T07:33:03.914Z,62.98
2019-06-07T07:35:03.481Z,62.24
2019-06-07T07:36:18.943Z,61.74
2019-06-07T07:37:03.836Z,60.24
2019-06-07T07:38:02.453Z,61.65
2019-06-07T07:39:05.253Z,61.65
2019-06-07T07:40:48.045Z,60.74
2019-06-07T07:41:14.671Z,60.03
2019-06-07T07:42:20.088Z,61.04
2019-06-07T07:43:03.411Z,60.61
2019-06-07T07:44:07.076Z,60.33
2019-06-07T07:45:03.376Z,60.44
2019-06-07T07:46:03.696Z,60.31
2019-06-07T07:47:03.372Z,60.51
2019-06-07T07:48:15.834Z,60.11
2019-06-07T07:49:03.327Z,60.31
2019-06-07T07:50:02.392Z,60.00
2019-06-07T07:51:03.340Z,60.81
2019-06-07T07:52:02.346Z,59.98
2019-06-07T07:53:02.282Z,60.00
2019-06-07T07:54:10.723Z,60.38
2019-06-07T07:55:03.263Z,59.98
2019-06-07T07:56:02.545Z,59.58
2019-06-07T07:57:02.258Z,59.98
2019-06-07T07:58:02.243Z,60.18
2019-06-07T07:59:02.845Z,60.28
2019-06-07T08:00:36.802Z,60.55
2019-06-07T08:01:10.368Z,60.75
2019-06-07T08:02:03.473Z,60.55
2019-06-07T08:03:04.542Z,59.34
2019-06-07T08:04:02.178Z,59.27
2019-06-07T08:05:28.748Z,59.27
2019-06-07T08:06:03.168Z,58.87
2019-06-07T08:07:02.162Z,58.37
2019-06-07T08:08:05.338Z,58.77
2019-06-07T08:09:03.123Z,59.78
2019-06-07T08:10:04.149Z,58.37
2019-06-07T08:11:02.587Z,59.41
2019-06-07T08:12:02.690Z,58.40
2019-06-07T08:13:23.576Z,59.50
2019-06-07T08:14:03.061Z,58.97
2019-06-07T08:15:03.506Z,59.20
2019-06-07T08:16:10.538Z,59.00
2019-06-07T08:17:03.060Z,58.60
2019-06-07T08:18:04.535Z,59.17
2019-06-07T08:19:03.987Z,58.20
2019-06-07T08:20:02.853Z,58.50
2019-06-07T08:21:21.156Z,58.20
2019-06-07T08:22:03.001Z,58.60
2019-06-07T08:23:01.979Z,58.50
2019-06-07T08:24:05.191Z,58.17
2019-06-07T08:25:04.391Z,57.90
2019-06-07T08:26:01.931Z,58.07
2019-06-07T08:27:24.573Z,57.37
2019-06-07T08:28:02.914Z,57.26
2019-06-07T08:29:03.007Z,56.89
2019-06-07T08:30:34.624Z,57.59
2019-06-07T08:31:06.774Z,57.46
2019-06-07T08:32:01.877Z,56.76
2019-06-07T08:33:24.509Z,56.96
2019-06-07T08:34:02.866Z,57.37
2019-06-07T08:36:03.274Z,57.46
2019-06-07T08:36:15.114Z,56.96
2019-06-07T08:37:02.829Z,57.37
2019-06-07T08:38:25.116Z,57.37
2019-06-07T08:39:07.243Z,58.07
2019-06-07T08:40:02.149Z,57.26
2019-06-07T08:41:10.942Z,57.46
2019-06-07T08:42:15.476Z,57.14
2019-06-07T08:43:19.327Z,57.34
2019-06-07T08:44:22.376Z,57.44
2019-06-07T08:45:05.491Z,57.44
2019-06-07T08:46:07.077Z,57.24
2019-06-07T08:47:19.481Z,57.51
2019-06-07T08:48:09.517Z,57.01
2019-06-07T08:49:04.823Z,56.61
2019-06-07T08:50:07.458Z,56.21
2019-06-07T08:51:08.319Z,56.71
2019-06-07T08:52:09.844Z,56.68
2019-06-07T08:53:11.427Z,56.71
2019-06-07T08:54:21.085Z,56.51
2019-06-07T08:55:04.935Z,56.48
2019-06-07T08:56:09.942Z,56.08
2019-06-07T08:57:19.688Z,56.35
2019-06-07T08:58:08.183Z,54.95
2019-06-07T08:59:10.857Z,55.73
2019-06-07T09:00:15.993Z,55.15
2019-06-07T09:01:07.713Z,55.43
2019-06-07T09:02:14.558Z,55.32
2019-06-07T09:03:05.180Z,55.13
2019-06-07T09:04:07.620Z,54.39
2019-06-07T09:05:11.181Z,54.62
2019-06-07T09:06:16.428Z,55.20
2019-06-07T09:07:17.768Z,54.80
2019-06-07T09:08:23.651Z,54.60
2019-06-07T09:09:05.125Z,54.50
2019-06-07T09:10:09.329Z,54.60
2019-06-07T09:11:10.173Z,54.82
2019-06-07T09:12:08.124Z,55.22
2019-06-07T09:13:07.622Z,54.82
2019-06-07T09:14:08.667Z,54.90
2019-06-07T09:15:19.917Z,55.32
2019-06-07T09:16:06.783Z,55.63
2019-06-07T09:17:08.787Z,55.60
2019-06-07T09:18:37.951Z,54.39
2019-06-07T09:19:06.698Z,54.17
2019-06-07T09:20:10.409Z,54.17
2019-06-07T09:21:07.678Z,54.17
2019-06-07T09:22:08.235Z,54.27
2019-06-07T09:23:11.440Z,52.84
2019-06-07T09:24:07.044Z,53.07
2019-06-07T09:25:10.622Z,53.87
2019-06-07T09:26:12.471Z,54.17
2019-06-07T09:27:05.374Z,54.74
2019-06-07T09:28:10.229Z,53.34
2019-06-07T09:29:07.086Z,52.94
2019-06-07T09:30:07.620Z,52.55
2019-06-07T09:31:08.837Z,53.07
2019-06-07T09:32:05.966Z,53.37
2019-06-07T09:33:05.751Z,53.27
2019-06-07T09:34:07.900Z,53.57
2019-06-07T09:35:08.100Z,53.47
2019-06-07T09:36:07.954Z,52.67
2019-06-07T09:37:24.560Z,51.87
2019-06-07T09:38:10.972Z,52.57
2019-06-07T09:39:07.615Z,51.46
2019-06-07T09:40:15.529Z,51.97
2019-06-07T09:41:04.543Z,51.64
2019-06-07T09:42:04.280Z,52.37
2019-06-07T09:43:47.985Z,52.57
2019-06-07T09:44:19.305Z,52.17
2019-06-07T09:45:08.191Z,53.59
2019-06-07T09:46:11.084Z,53.07
2019-06-07T09:47:22.298Z,53.47
2019-06-07T09:48:09.332Z,52.87
2019-06-07T09:49:14.198Z,52.17
2019-06-07T09:50:08.387Z,52.67
2019-06-07T09:51:09.538Z,52.55
2019-06-07T09:52:03.606Z,52.24
2019-06-07T09:53:10.628Z,51.74
2019-06-07T09:54:06.450Z,51.84
2019-06-07T09:55:09.357Z,51.74
2019-06-07T09:56:05.739Z,51.64
2019-06-07T09:57:04.255Z,52.24
2019-06-07T09:58:30.279Z,51.84
2019-06-07T09:59:03.739Z,51.82
2019-06-07T10:00:10.367Z,51.22
2019-06-07T10:01:06.121Z,51.12
2019-06-07T10:02:05.204Z,51.32
2019-06-07T10:03:08.874Z,51.39
2019-06-07T10:04:07.387Z,50.89
2019-06-07T10:05:04.573Z,50.89
2019-06-07T10:06:07.607Z,51.77
2019-06-07T10:07:09.084Z,50.27
2019-06-07T10:08:16.140Z,50.17
2019-06-07T10:10:04.777Z,50.57
2019-06-07T10:10:24.721Z,50.29
2019-06-07T10:11:02.616Z,50.77
2019-06-07T10:12:02.199Z,50.27
2019-06-07T10:13:01.672Z,50.37
2019-06-07T10:14:00.786Z,50.67
2019-06-07T10:15:00.786Z,50.54
2019-06-07T10:16:00.924Z,50.15
2019-06-07T10:17:00.930Z,49.74
2019-06-07T10:18:00.812Z,49.65
2019-06-07T10:19:01.592Z,49.55
2019-06-07T10:20:02.585Z,49.44
2019-06-07T10:21:01.437Z,49.47
2019-06-07T10:22:01.372Z,49.67
2019-06-07T10:23:01.617Z,49.44
2019-06-07T10:24:01.250Z,49.35
2019-06-07T10:25:02.092Z,49.25
2019-06-07T10:26:01.580Z,49.62
2019-06-07T10:27:01.717Z,48.93
2019-06-07T10:28:01.818Z,49.02
2019-06-07T10:29:01.857Z,49.62
2019-06-07T10:30:02.212Z,49.32
2019-06-07T10:31:01.966Z,49.20
2019-06-07T10:32:02.181Z,48.50
2019-06-07T10:33:02.105Z,48.80
2019-06-07T10:34:00.587Z,48.60
2019-06-07T10:35:00.612Z,48.58
2019-06-07T10:36:00.551Z,48.40
2019-06-07T10:37:03.348Z,48.00
2019-06-07T10:38:02.478Z,48.82
2019-06-07T10:39:00.767Z,48.82
2019-06-07T10:40:00.665Z,48.93
2019-06-07T10:41:00.761Z,49.42
2019-06-07T10:42:00.914Z,49.12
2019-06-07T10:43:01.185Z,49.32
2019-06-07T10:44:01.035Z,48.72
2019-06-07T10:45:02.367Z,49.35
2019-06-07T10:46:01.463Z,49.62
2019-06-07T10:47:01.705Z,49.02
2019-06-07T10:48:01.519Z,49.52
2019-06-07T10:49:01.600Z,49.32
2019-06-07T10:50:01.648Z,48.60
2019-06-07T10:51:00.386Z,48.80
2019-06-07T10:52:03.336Z,48.80
2019-06-07T10:53:00.398Z,47.20
2019-06-07T10:54:00.360Z,47.58
2019-06-07T10:55:00.359Z,47.28
2019-06-07T10:56:00.331Z,48.05
2019-06-07T10:57:00.352Z,47.86
2019-06-07T10:58:00.316Z,47.14
2019-06-07T10:59:00.323Z,46.22
2019-06-07T11:00:00.299Z,45.72
2019-06-07T11:01:00.314Z,46.30
2019-06-07T11:02:00.333Z,46.00
2019-06-07T11:03:00.263Z,46.39
2019-06-07T11:04:00.253Z,46.08
2019-06-07T11:05:00.309Z,46.65
2019-06-07T11:06:00.236Z,44.64
2019-06-07T11:07:00.246Z,45.81
2019-06-07T11:08:00.770Z,45.03
2019-06-07T11:09:00.203Z,45.65
2019-06-07T11:10:07.382Z,45.93
2019-06-07T11:11:01.195Z,45.93
2019-06-07T11:12:00.215Z,46.01
2019-06-07T11:13:00.194Z,44.87
2019-06-07T11:14:00.160Z,44.04
2019-06-07T11:15:00.147Z,43.10
2019-06-07T11:16:00.145Z,42.14
2019-06-07T11:17:00.289Z,41.33
2019-06-07T11:18:00.147Z,41.52
2019-06-07T11:19:00.120Z,41.30
2019-06-07T11:20:00.137Z,40.61
2019-06-07T11:21:00.089Z,39.11
2019-06-07T11:22:00.096Z,39.79
2019-06-07T11:23:00.090Z,39.65
2019-06-07T11:24:00.074Z,37.96
2019-06-07T11:25:00.076Z,37.68
2019-06-07T11:26:00.040Z,38.57
2019-06-07T11:27:00.069Z,38.24
2019-06-07T11:28:00.030Z,37.22
2019-06-07T11:29:00.027Z,35.99
2019-06-07T11:30:00.006Z,35.49
2019-06-07T11:31:00.029Z,36.28
2019-06-07T11:32:00.105Z,36.15
2019-06-07T11:33:00.008Z,34.95
2019-06-07T11:33:59.996Z,34.75
2019-06-07T11:34:59.977Z,34.15
2019-06-07T11:35:59.977Z,33.94
2019-06-07T11:37:00.020Z,34.13
2019-06-07T11:37:59.999Z,34.31
2019-06-07T11:38:59.931Z,32.84
2019-06-07T11:39:59.938Z,33.51
2019-06-07T11:40:59.918Z,33.69
2019-06-07T11:41:59.937Z,32.51
2019-06-07T11:42:59.926Z,33.00
2019-06-07T11:43:59.896Z,32.61
2019-06-07T11:44:59.899Z,33.14
2019-06-07T11:45:59.904Z,33.77
2019-06-07T11:46:59.899Z,35.33
2019-06-07T11:48:00.129Z,36.46
2019-06-07T11:48:59.870Z,36.72
2019-06-07T11:49:59.848Z,37.45
2019-06-07T11:50:59.842Z,37.26
2019-06-07T11:51:59.848Z,36.79
2019-06-07T11:52:59.814Z,34.38
2019-06-07T11:53:59.805Z,33.65
2019-06-07T11:54:59.800Z,33.23
2019-06-07T11:55:59.816Z,33.12
2019-06-07T11:56:59.807Z,33.10
2019-06-07T11:57:59.783Z,32.70
2019-06-07T11:58:59.799Z,32.40
2019-06-07T11:59:59.758Z,32.01
2019-06-07T12:00:59.751Z,32.68
2019-06-07T12:01:59.773Z,32.17
2019-06-07T12:02:59.725Z,31.70
2019-06-07T12:03:59.731Z,31.51
2019-06-07T12:04:59.717Z,32.35
2019-06-07T12:05:59.702Z,32.63
2019-06-07T12:06:59.915Z,33.00
2019-06-07T12:07:59.706Z,32.58
2019-06-07T12:08:59.722Z,31.18
2019-06-07T12:09:59.673Z,31.46
2019-06-07T12:10:59.666Z,30.45
2019-06-07T12:11:59.663Z,29.83
2019-06-07T12:12:59.659Z,29.91
2019-06-07T12:13:59.638Z,28.34
2019-06-07T12:14:59.626Z,29.69
2019-06-07T12:15:59.626Z,31.10
2019-06-07T12:16:59.645Z,31.24
2019-06-07T12:17:59.617Z,33.25
2019-06-07T12:18:59.591Z,33.77
2019-06-07T12:19:59.583Z,34.05
2019-06-07T12:20:59.582Z,33.23
2019-06-07T12:21:59.581Z,32.89
2019-06-07T12:23:00.608Z,32.06
2019-06-07T12:23:59.566Z,31.13
2019-06-07T12:24:59.558Z,30.32
2019-06-07T12:25:59.536Z,29.14
2019-06-07T12:26:59.543Z,30.32
2019-06-07T12:27:59.544Z,30.32
2019-06-07T12:28:59.520Z,29.92
2019-06-07T12:29:59.515Z,29.71
2019-06-07T12:30:59.497Z,28.93
2019-06-07T12:31:59.503Z,29.79
2019-06-07T12:32:59.478Z,29.66
2019-06-07T12:33:59.460Z,28.29
2019-06-07T12:34:59.457Z,28.08
2019-06-07T12:35:59.457Z,28.45
2019-06-07T12:36:59.456Z,28.17
2019-06-07T12:37:59.444Z,27.97
2019-06-07T12:38:59.421Z,27.47
2019-06-07T12:39:59.421Z,27.89
2019-06-07T12:40:59.409Z,27.83
2019-06-07T12:41:59.427Z,28.34
2019-06-07T12:42:59.403Z,29.11
2019-06-07T12:43:59.412Z,29.21
2019-06-07T12:44:59.372Z,29.39
2019-06-07T12:45:59.373Z,28.51
2019-06-07T12:46:59.370Z,28.61
2019-06-07T12:47:59.394Z,28.22
2019-06-07T12:48:59.385Z,29.26
2019-06-07T12:49:59.352Z,29.15
2019-06-07T12:50:59.325Z,28.28
2019-06-07T12:51:59.342Z,27.58
2019-06-07T12:52:59.313Z,27.67
2019-06-07T12:53:59.303Z,27.25
2019-06-07T12:54:59.289Z,27.53
2019-06-07T12:56:00.292Z,27.08
2019-06-07T12:56:59.299Z,29.02
2019-06-07T12:57:59.427Z,28.53